sensor_id;sensor_type;location;lat;lon;timestamp;P1;durP1;ratioP1;P2;durP2;ratioP2
16892;SDS011;8563;52.242;9.098;2024-02-15T00:01:13;16.17;;;14.63;;
16892;SDS011;8563;52.242;9.098;2024-02-15T00:03:46;18.07;;;16.30;;
16892;SDS011;8563;52.242;9.098;2024-02-15T00:06:20;17.20;;;15.70;;
16892;SDS011;8563;52.242;9.098;2024-02-15T00:08:53;16.27;;;14.73;;
16892;SDS011;8563;52.242;9.098;2024-02-15T00:11:25;14.97;;;13.47;;
16892;SDS011;8563;52.242;9.098;2024-02-15T00:13:57;16.50;;;14.97;;
16892;SDS011;8563;52.242;9.098;2024-02-15T00:16:30;17.53;;;15.57;;
16892;SDS011;8563;52.242;9.098;2024-02-15T00:19:03;15.33;;;14.03;;
16892;SDS011;8563;52.242;9.098;2024-02-15T00:21:42;16.27;;;14.77;;
16892;SDS011;8563;52.242;9.098;2024-02-15T00:24:14;15.27;;;13.97;;
16892;SDS011;8563;52.242;9.098;2024-02-15T00:26:47;17.00;;;15.20;;
16892;SDS011;8563;52.242;9.098;2024-02-15T00:29:19;15.47;;;14.10;;
16892;SDS011;8563;52.242;9.098;2024-02-15T00:31:51;15.53;;;14.13;;
16892;SDS011;8563;52.242;9.098;2024-02-15T00:34:23;15.57;;;14.20;;
16892;SDS011;8563;52.242;9.098;2024-02-15T00:36:58;17.93;;;16.27;;
16892;SDS011;8563;52.242;9.098;2024-02-15T00:39:31;16.63;;;15.10;;
16892;SDS011;8563;52.242;9.098;2024-02-15T00:42:03;16.73;;;15.27;;
16892;SDS011;8563;52.242;9.098;2024-02-15T00:44:39;16.63;;;15.00;;
16892;SDS011;8563;52.242;9.098;2024-02-15T00:47:11;17.13;;;15.43;;
16892;SDS011;8563;52.242;9.098;2024-02-15T00:49:43;16.17;;;14.77;;
16892;SDS011;8563;52.242;9.098;2024-02-15T00:52:17;16.70;;;15.20;;
16892;SDS011;8563;52.242;9.098;2024-02-15T00:54:50;15.90;;;14.43;;
16892;SDS011;8563;52.242;9.098;2024-02-15T00:57:22;15.33;;;13.93;;
16892;SDS011;8563;52.242;9.098;2024-02-15T00:59:54;15.57;;;14.07;;
16892;SDS011;8563;52.242;9.098;2024-02-15T01:02:26;15.80;;;13.37;;
16892;SDS011;8563;52.242;9.098;2024-02-15T01:04:59;14.40;;;13.10;;
16892;SDS011;8563;52.242;9.098;2024-02-15T01:07:33;13.17;;;11.97;;
16892;SDS011;8563;52.242;9.098;2024-02-15T01:10:06;12.97;;;11.87;;
16892;SDS011;8563;52.242;9.098;2024-02-15T01:12:39;12.60;;;11.43;;
16892;SDS011;8563;52.242;9.098;2024-02-15T01:15:11;12.03;;;10.77;;
16892;SDS011;8563;52.242;9.098;2024-02-15T01:17:43;11.53;;;10.53;;
16892;SDS011;8563;52.242;9.098;2024-02-15T01:20:16;12.37;;;11.37;;
16892;SDS011;8563;52.242;9.098;2024-02-15T01:22:49;11.87;;;10.77;;
16892;SDS011;8563;52.242;9.098;2024-02-15T01:25:22;10.87;;;9.97;;
16892;SDS011;8563;52.242;9.098;2024-02-15T01:27:54;10.70;;;9.90;;
16892;SDS011;8563;52.242;9.098;2024-02-15T01:30:26;9.83;;;8.93;;
16892;SDS011;8563;52.242;9.098;2024-02-15T01:32:59;10.50;;;9.60;;
16892;SDS011;8563;52.242;9.098;2024-02-15T01:35:32;9.70;;;8.80;;
16892;SDS011;8563;52.242;9.098;2024-02-15T01:38:05;10.10;;;9.30;;
16892;SDS011;8563;52.242;9.098;2024-02-15T01:40:38;9.47;;;8.70;;
16892;SDS011;8563;52.242;9.098;2024-02-15T01:43:10;10.50;;;9.60;;
16892;SDS011;8563;52.242;9.098;2024-02-15T01:45:42;9.23;;;8.53;;
16892;SDS011;8563;52.242;9.098;2024-02-15T01:48:17;10.07;;;9.10;;
16892;SDS011;8563;52.242;9.098;2024-02-15T01:50:49;11.73;;;10.73;;
16892;SDS011;8563;52.242;9.098;2024-02-15T01:53:23;10.33;;;9.43;;
16892;SDS011;8563;52.242;9.098;2024-02-15T01:55:57;12.20;;;11.00;;
16892;SDS011;8563;52.242;9.098;2024-02-15T01:58:31;11.90;;;10.80;;
16892;SDS011;8563;52.242;9.098;2024-02-15T02:01:05;13.00;;;11.70;;
16892;SDS011;8563;52.242;9.098;2024-02-15T02:03:37;12.63;;;11.33;;
16892;SDS011;8563;52.242;9.098;2024-02-15T02:06:11;12.77;;;11.67;;
16892;SDS011;8563;52.242;9.098;2024-02-15T02:08:45;12.60;;;11.60;;
16892;SDS011;8563;52.242;9.098;2024-02-15T02:11:17;13.97;;;12.20;;
16892;SDS011;8563;52.242;9.098;2024-02-15T02:13:49;14.37;;;13.00;;
16892;SDS011;8563;52.242;9.098;2024-02-15T02:16:25;13.13;;;11.93;;
16892;SDS011;8563;52.242;9.098;2024-02-15T02:18:59;13.03;;;11.80;;
16892;SDS011;8563;52.242;9.098;2024-02-15T02:21:31;12.63;;;11.53;;
16892;SDS011;8563;52.242;9.098;2024-02-15T02:24:08;12.37;;;11.17;;
16892;SDS011;8563;52.242;9.098;2024-02-15T02:26:46;12.37;;;11.27;;
16892;SDS011;8563;52.242;9.098;2024-02-15T02:29:18;13.10;;;12.00;;
16892;SDS011;8563;52.242;9.098;2024-02-15T02:31:51;12.63;;;11.63;;
16892;SDS011;8563;52.242;9.098;2024-02-15T02:34:23;13.27;;;12.00;;
16892;SDS011;8563;52.242;9.098;2024-02-15T02:36:56;13.13;;;11.93;;
16892;SDS011;8563;52.242;9.098;2024-02-15T02:39:28;13.50;;;12.30;;
16892;SDS011;8563;52.242;9.098;2024-02-15T02:42:03;13.60;;;12.30;;
16892;SDS011;8563;52.242;9.098;2024-02-15T02:44:35;14.40;;;12.90;;
16892;SDS011;8563;52.242;9.098;2024-02-15T02:47:08;13.87;;;12.57;;
16892;SDS011;8563;52.242;9.098;2024-02-15T02:49:40;14.40;;;13.00;;
16892;SDS011;8563;52.242;9.098;2024-02-15T02:52:13;14.47;;;13.27;;
16892;SDS011;8563;52.242;9.098;2024-02-15T02:54:45;15.67;;;14.27;;
16892;SDS011;8563;52.242;9.098;2024-02-15T02:57:19;15.10;;;13.80;;
16892;SDS011;8563;52.242;9.098;2024-02-15T02:59:51;14.83;;;13.43;;
16892;SDS011;8563;52.242;9.098;2024-02-15T03:02:24;15.83;;;14.43;;
16892;SDS011;8563;52.242;9.098;2024-02-15T03:04:56;16.63;;;14.90;;
16892;SDS011;8563;52.242;9.098;2024-02-15T03:07:32;16.10;;;14.50;;
16892;SDS011;8563;52.242;9.098;2024-02-15T03:10:05;15.70;;;14.27;;
16892;SDS011;8563;52.242;9.098;2024-02-15T03:12:40;15.27;;;13.53;;
16892;SDS011;8563;52.242;9.098;2024-02-15T03:15:13;17.37;;;15.67;;
16892;SDS011;8563;52.242;9.098;2024-02-15T03:17:46;18.43;;;14.43;;
16892;SDS011;8563;52.242;9.098;2024-02-15T03:20:20;14.40;;;12.93;;
16892;SDS011;8563;52.242;9.098;2024-02-15T03:22:54;14.83;;;13.40;;
16892;SDS011;8563;52.242;9.098;2024-02-15T03:25:28;13.97;;;12.67;;
16892;SDS011;8563;52.242;9.098;2024-02-15T03:28:02;15.10;;;13.80;;
16892;SDS011;8563;52.242;9.098;2024-02-15T03:30:35;15.57;;;13.97;;
16892;SDS011;8563;52.242;9.098;2024-02-15T03:33:07;14.27;;;12.97;;
16892;SDS011;8563;52.242;9.098;2024-02-15T03:35:39;13.53;;;12.33;;
16892;SDS011;8563;52.242;9.098;2024-02-15T03:38:12;14.00;;;12.80;;
16892;SDS011;8563;52.242;9.098;2024-02-15T03:40:44;12.27;;;11.20;;
16892;SDS011;8563;52.242;9.098;2024-02-15T03:43:18;12.40;;;11.30;;
16892;SDS011;8563;52.242;9.098;2024-02-15T03:45:50;12.57;;;11.37;;
16892;SDS011;8563;52.242;9.098;2024-02-15T03:48:22;13.07;;;11.97;;
16892;SDS011;8563;52.242;9.098;2024-02-15T03:50:54;12.90;;;11.70;;
16892;SDS011;8563;52.242;9.098;2024-02-15T03:53:27;12.90;;;11.70;;
16892;SDS011;8563;52.242;9.098;2024-02-15T03:56:00;12.27;;;11.23;;
16892;SDS011;8563;52.242;9.098;2024-02-15T03:58:34;12.43;;;11.33;;
16892;SDS011;8563;52.242;9.098;2024-02-15T04:01:07;10.40;;;9.60;;
16892;SDS011;8563;52.242;9.098;2024-02-15T04:03:40;12.33;;;11.23;;
16892;SDS011;8563;52.242;9.098;2024-02-15T04:06:12;11.13;;;10.13;;
16892;SDS011;8563;52.242;9.098;2024-02-15T04:08:44;10.57;;;9.60;;
16892;SDS011;8563;52.242;9.098;2024-02-15T04:11:17;9.80;;;9.00;;
16892;SDS011;8563;52.242;9.098;2024-02-15T04:13:51;10.57;;;9.67;;
16892;SDS011;8563;52.242;9.098;2024-02-15T04:16:23;11.30;;;10.20;;
16892;SDS011;8563;52.242;9.098;2024-02-15T04:18:56;11.07;;;10.17;;
16892;SDS011;8563;52.242;9.098;2024-02-15T04:21:29;11.20;;;10.13;;
16892;SDS011;8563;52.242;9.098;2024-02-15T04:24:01;11.57;;;10.30;;
16892;SDS011;8563;52.242;9.098;2024-02-15T04:26:33;10.47;;;9.57;;
16892;SDS011;8563;52.242;9.098;2024-02-15T04:29:09;12.03;;;10.30;;
16892;SDS011;8563;52.242;9.098;2024-02-15T04:31:42;10.60;;;9.60;;
16892;SDS011;8563;52.242;9.098;2024-02-15T04:34:15;12.40;;;11.30;;
16892;SDS011;8563;52.242;9.098;2024-02-15T04:36:47;11.80;;;10.83;;
16892;SDS011;8563;52.242;9.098;2024-02-15T04:39:21;12.43;;;11.13;;
16892;SDS011;8563;52.242;9.098;2024-02-15T04:41:57;13.83;;;12.50;;
16892;SDS011;8563;52.242;9.098;2024-02-15T04:44:31;14.27;;;12.87;;
16892;SDS011;8563;52.242;9.098;2024-02-15T04:47:05;14.43;;;13.13;;
16892;SDS011;8563;52.242;9.098;2024-02-15T04:49:39;15.07;;;13.57;;
16892;SDS011;8563;52.242;9.098;2024-02-15T04:52:12;15.83;;;13.67;;
16892;SDS011;8563;52.242;9.098;2024-02-15T04:54:44;15.17;;;13.80;;
16892;SDS011;8563;52.242;9.098;2024-02-15T04:57:17;16.93;;;15.33;;
16892;SDS011;8563;52.242;9.098;2024-02-15T04:59:50;16.47;;;14.87;;
16892;SDS011;8563;52.242;9.098;2024-02-15T05:02:24;16.43;;;14.83;;
16892;SDS011;8563;52.242;9.098;2024-02-15T05:04:56;16.40;;;14.73;;
16892;SDS011;8563;52.242;9.098;2024-02-15T05:07:28;18.83;;;16.07;;
16892;SDS011;8563;52.242;9.098;2024-02-15T05:10:01;19.53;;;17.13;;
16892;SDS011;8563;52.242;9.098;2024-02-15T05:12:37;19.17;;;17.27;;
16892;SDS011;8563;52.242;9.098;2024-02-15T05:15:11;19.83;;;17.80;;
16892;SDS011;8563;52.242;9.098;2024-02-15T05:17:44;21.53;;;19.30;;
16892;SDS011;8563;52.242;9.098;2024-02-15T05:20:18;21.30;;;19.17;;
16892;SDS011;8563;52.242;9.098;2024-02-15T05:22:51;21.63;;;19.20;;
16892;SDS011;8563;52.242;9.098;2024-02-15T05:25:23;21.07;;;18.93;;
16892;SDS011;8563;52.242;9.098;2024-02-15T05:27:57;21.47;;;19.23;;
16892;SDS011;8563;52.242;9.098;2024-02-15T05:30:31;19.77;;;17.23;;
16892;SDS011;8563;52.242;9.098;2024-02-15T05:33:04;21.10;;;18.87;;
16892;SDS011;8563;52.242;9.098;2024-02-15T05:35:40;19.87;;;17.77;;
16892;SDS011;8563;52.242;9.098;2024-02-15T05:38:16;23.33;;;20.07;;
16892;SDS011;8563;52.242;9.098;2024-02-15T05:40:48;21.47;;;19.17;;
16892;SDS011;8563;52.242;9.098;2024-02-15T05:43:21;20.43;;;18.33;;
16892;SDS011;8563;52.242;9.098;2024-02-15T05:45:56;22.83;;;20.43;;
16892;SDS011;8563;52.242;9.098;2024-02-15T05:48:30;22.47;;;20.07;;
16892;SDS011;8563;52.242;9.098;2024-02-15T05:51:06;21.53;;;19.23;;
16892;SDS011;8563;52.242;9.098;2024-02-15T05:53:39;22.67;;;20.33;;
16892;SDS011;8563;52.242;9.098;2024-02-15T05:56:11;20.73;;;18.73;;
16892;SDS011;8563;52.242;9.098;2024-02-15T05:58:44;25.37;;;20.10;;
16892;SDS011;8563;52.242;9.098;2024-02-15T06:01:18;25.03;;;20.80;;
16892;SDS011;8563;52.242;9.098;2024-02-15T06:03:50;22.73;;;19.30;;
16892;SDS011;8563;52.242;9.098;2024-02-15T06:06:25;22.93;;;19.93;;
16892;SDS011;8563;52.242;9.098;2024-02-15T06:08:58;26.63;;;21.17;;
16892;SDS011;8563;52.242;9.098;2024-02-15T06:11:31;21.03;;;18.90;;
16892;SDS011;8563;52.242;9.098;2024-02-15T06:14:04;21.67;;;19.43;;
16892;SDS011;8563;52.242;9.098;2024-02-15T06:16:42;22.50;;;19.07;;
16892;SDS011;8563;52.242;9.098;2024-02-15T06:19:15;22.67;;;19.87;;
16892;SDS011;8563;52.242;9.098;2024-02-15T06:21:47;24.17;;;20.00;;
16892;SDS011;8563;52.242;9.098;2024-02-15T06:24:19;21.07;;;19.07;;
16892;SDS011;8563;52.242;9.098;2024-02-15T06:26:52;23.47;;;18.33;;
16892;SDS011;8563;52.242;9.098;2024-02-15T06:29:30;18.80;;;16.97;;
16892;SDS011;8563;52.242;9.098;2024-02-15T06:32:20;18.03;;;16.27;;
16892;SDS011;8563;52.242;9.098;2024-02-15T06:35:10;16.67;;;14.70;;
16892;SDS011;8563;52.242;9.098;2024-02-15T06:38:00;15.47;;;13.87;;
16892;SDS011;8563;52.242;9.098;2024-02-15T06:40:50;17.43;;;14.47;;
16892;SDS011;8563;52.242;9.098;2024-02-15T06:43:24;13.13;;;11.50;;
16892;SDS011;8563;52.242;9.098;2024-02-15T06:45:57;11.90;;;10.70;;
16892;SDS011;8563;52.242;9.098;2024-02-15T06:48:31;12.63;;;11.00;;
16892;SDS011;8563;52.242;9.098;2024-02-15T06:51:04;13.50;;;9.87;;
16892;SDS011;8563;52.242;9.098;2024-02-15T06:53:38;10.73;;;9.63;;
16892;SDS011;8563;52.242;9.098;2024-02-15T06:56:11;11.77;;;8.63;;
16892;SDS011;8563;52.242;9.098;2024-02-15T06:58:44;10.73;;;8.50;;
16892;SDS011;8563;52.242;9.098;2024-02-15T07:01:16;12.73;;;8.00;;
16892;SDS011;8563;52.242;9.098;2024-02-15T07:03:50;12.17;;;7.83;;
16892;SDS011;8563;52.242;9.098;2024-02-15T07:06:22;10.03;;;8.07;;
16892;SDS011;8563;52.242;9.098;2024-02-15T07:08:55;11.23;;;8.63;;
16892;SDS011;8563;52.242;9.098;2024-02-15T07:11:28;10.20;;;7.57;;
16892;SDS011;8563;52.242;9.098;2024-02-15T07:14:00;9.00;;;7.97;;
16892;SDS011;8563;52.242;9.098;2024-02-15T07:16:34;13.90;;;8.50;;
16892;SDS011;8563;52.242;9.098;2024-02-15T07:19:08;10.47;;;8.57;;
16892;SDS011;8563;52.242;9.098;2024-02-15T07:21:40;11.03;;;7.97;;
16892;SDS011;8563;52.242;9.098;2024-02-15T07:24:14;11.43;;;7.37;;
16892;SDS011;8563;52.242;9.098;2024-02-15T07:26:46;8.97;;;7.10;;
16892;SDS011;8563;52.242;9.098;2024-02-15T07:29:18;8.27;;;6.43;;
16892;SDS011;8563;52.242;9.098;2024-02-15T07:31:51;9.97;;;6.20;;
16892;SDS011;8563;52.242;9.098;2024-02-15T07:34:25;9.47;;;6.30;;
16892;SDS011;8563;52.242;9.098;2024-02-15T07:36:57;9.00;;;5.63;;
16892;SDS011;8563;52.242;9.098;2024-02-15T07:39:30;7.67;;;5.73;;
16892;SDS011;8563;52.242;9.098;2024-02-15T07:42:03;6.50;;;5.27;;
16892;SDS011;8563;52.242;9.098;2024-02-15T07:44:37;11.63;;;6.10;;
16892;SDS011;8563;52.242;9.098;2024-02-15T07:47:09;7.50;;;5.47;;
16892;SDS011;8563;52.242;9.098;2024-02-15T07:49:43;8.83;;;5.57;;
16892;SDS011;8563;52.242;9.098;2024-02-15T07:52:15;7.70;;;5.47;;
16892;SDS011;8563;52.242;9.098;2024-02-15T07:54:48;8.07;;;5.50;;
16892;SDS011;8563;52.242;9.098;2024-02-15T07:57:22;10.30;;;5.10;;
16892;SDS011;8563;52.242;9.098;2024-02-15T07:59:55;6.70;;;5.10;;
16892;SDS011;8563;52.242;9.098;2024-02-15T08:02:28;7.97;;;5.07;;
16892;SDS011;8563;52.242;9.098;2024-02-15T08:05:01;8.70;;;5.13;;
16892;SDS011;8563;52.242;9.098;2024-02-15T08:07:40;10.70;;;6.00;;
16892;SDS011;8563;52.242;9.098;2024-02-15T08:10:14;8.43;;;5.47;;
16892;SDS011;8563;52.242;9.098;2024-02-15T08:12:47;7.23;;;4.73;;
16892;SDS011;8563;52.242;9.098;2024-02-15T08:15:23;7.23;;;4.70;;
16892;SDS011;8563;52.242;9.098;2024-02-15T08:17:57;5.70;;;4.03;;
16892;SDS011;8563;52.242;9.098;2024-02-15T08:20:31;5.83;;;4.60;;
16892;SDS011;8563;52.242;9.098;2024-02-15T08:23:04;5.83;;;3.80;;
16892;SDS011;8563;52.242;9.098;2024-02-15T08:25:38;6.17;;;4.00;;
16892;SDS011;8563;52.242;9.098;2024-02-15T08:28:11;6.63;;;4.10;;
16892;SDS011;8563;52.242;9.098;2024-02-15T08:30:43;6.83;;;4.30;;
16892;SDS011;8563;52.242;9.098;2024-02-15T08:33:15;4.23;;;3.73;;
16892;SDS011;8563;52.242;9.098;2024-02-15T08:35:51;6.03;;;3.63;;
16892;SDS011;8563;52.242;9.098;2024-02-15T08:38:25;7.13;;;3.40;;
16892;SDS011;8563;52.242;9.098;2024-02-15T08:40:57;6.33;;;3.37;;
16892;SDS011;8563;52.242;9.098;2024-02-15T08:43:29;6.77;;;3.27;;
16892;SDS011;8563;52.242;9.098;2024-02-15T08:46:03;4.87;;;3.07;;
16892;SDS011;8563;52.242;9.098;2024-02-15T08:48:36;5.17;;;3.30;;
16892;SDS011;8563;52.242;9.098;2024-02-15T08:51:10;5.33;;;3.27;;
16892;SDS011;8563;52.242;9.098;2024-02-15T08:53:42;5.33;;;3.33;;
16892;SDS011;8563;52.242;9.098;2024-02-15T08:56:15;5.63;;;3.47;;
16892;SDS011;8563;52.242;9.098;2024-02-15T08:58:47;9.80;;;3.87;;
16892;SDS011;8563;52.242;9.098;2024-02-15T09:01:20;5.57;;;3.30;;
16892;SDS011;8563;52.242;9.098;2024-02-15T09:03:52;6.03;;;3.17;;
16892;SDS011;8563;52.242;9.098;2024-02-15T09:06:26;8.23;;;3.20;;
16892;SDS011;8563;52.242;9.098;2024-02-15T09:08:58;6.07;;;2.83;;
16892;SDS011;8563;52.242;9.098;2024-02-15T09:11:31;5.60;;;2.40;;
16892;SDS011;8563;52.242;9.098;2024-02-15T09:14:05;3.83;;;2.27;;
16892;SDS011;8563;52.242;9.098;2024-02-15T09:16:40;5.53;;;2.50;;
16892;SDS011;8563;52.242;9.098;2024-02-15T09:19:12;4.20;;;2.20;;
16892;SDS011;8563;52.242;9.098;2024-02-15T09:21:46;3.63;;;2.30;;
16892;SDS011;8563;52.242;9.098;2024-02-15T09:24:18;4.13;;;2.10;;
16892;SDS011;8563;52.242;9.098;2024-02-15T09:26:50;3.73;;;2.20;;
16892;SDS011;8563;52.242;9.098;2024-02-15T09:29:23;5.30;;;2.20;;
16892;SDS011;8563;52.242;9.098;2024-02-15T09:31:55;5.83;;;2.30;;
16892;SDS011;8563;52.242;9.098;2024-02-15T09:34:28;5.33;;;1.90;;
16892;SDS011;8563;52.242;9.098;2024-02-15T09:37:01;7.87;;;2.63;;
16892;SDS011;8563;52.242;9.098;2024-02-15T09:39:36;5.40;;;2.00;;
16892;SDS011;8563;52.242;9.098;2024-02-15T09:42:09;5.50;;;2.20;;
16892;SDS011;8563;52.242;9.098;2024-02-15T09:44:41;3.40;;;2.00;;
16892;SDS011;8563;52.242;9.098;2024-02-15T09:47:16;4.67;;;2.23;;
16892;SDS011;8563;52.242;9.098;2024-02-15T09:49:50;4.30;;;2.13;;
16892;SDS011;8563;52.242;9.098;2024-02-15T09:52:24;5.07;;;2.10;;
16892;SDS011;8563;52.242;9.098;2024-02-15T09:54:56;4.03;;;1.97;;
16892;SDS011;8563;52.242;9.098;2024-02-15T09:57:29;5.30;;;2.17;;
16892;SDS011;8563;52.242;9.098;2024-02-15T10:00:02;7.17;;;2.30;;
16892;SDS011;8563;52.242;9.098;2024-02-15T10:02:37;5.67;;;2.20;;
16892;SDS011;8563;52.242;9.098;2024-02-15T10:05:11;5.50;;;2.10;;
16892;SDS011;8563;52.242;9.098;2024-02-15T10:07:45;3.23;;;1.90;;
16892;SDS011;8563;52.242;9.098;2024-02-15T10:10:18;4.10;;;2.17;;
16892;SDS011;8563;52.242;9.098;2024-02-15T10:12:52;6.07;;;2.13;;
16892;SDS011;8563;52.242;9.098;2024-02-15T10:15:29;4.70;;;2.00;;
16892;SDS011;8563;52.242;9.098;2024-02-15T10:18:03;2.97;;;1.90;;
16892;SDS011;8563;52.242;9.098;2024-02-15T10:20:36;3.03;;;1.50;;
16892;SDS011;8563;52.242;9.098;2024-02-15T10:23:11;3.27;;;1.87;;
16892;SDS011;8563;52.242;9.098;2024-02-15T10:25:44;3.53;;;1.77;;
16892;SDS011;8563;52.242;9.098;2024-02-15T10:28:20;3.73;;;1.80;;
16892;SDS011;8563;52.242;9.098;2024-02-15T10:30:54;3.23;;;2.00;;
16892;SDS011;8563;52.242;9.098;2024-02-15T10:33:26;3.43;;;1.90;;
16892;SDS011;8563;52.242;9.098;2024-02-15T10:36:06;4.80;;;2.23;;
16892;SDS011;8563;52.242;9.098;2024-02-15T10:38:42;5.33;;;2.27;;
16892;SDS011;8563;52.242;9.098;2024-02-15T10:41:15;3.33;;;2.20;;
16892;SDS011;8563;52.242;9.098;2024-02-15T10:43:47;4.70;;;2.10;;
16892;SDS011;8563;52.242;9.098;2024-02-15T10:46:19;3.57;;;2.00;;
16892;SDS011;8563;52.242;9.098;2024-02-15T10:48:52;3.30;;;2.00;;
16892;SDS011;8563;52.242;9.098;2024-02-15T10:51:24;4.00;;;2.03;;
16892;SDS011;8563;52.242;9.098;2024-02-15T10:54:01;5.43;;;1.83;;
16892;SDS011;8563;52.242;9.098;2024-02-15T10:56:36;4.70;;;1.60;;
16892;SDS011;8563;52.242;9.098;2024-02-15T10:59:16;4.17;;;2.10;;
16892;SDS011;8563;52.242;9.098;2024-02-15T11:01:50;5.30;;;2.23;;
16892;SDS011;8563;52.242;9.098;2024-02-15T11:04:25;4.37;;;2.00;;
16892;SDS011;8563;52.242;9.098;2024-02-15T11:07:03;5.30;;;2.17;;
16892;SDS011;8563;52.242;9.098;2024-02-15T11:09:38;4.80;;;2.10;;
16892;SDS011;8563;52.242;9.098;2024-02-15T11:12:10;4.37;;;2.10;;
16892;SDS011;8563;52.242;9.098;2024-02-15T11:14:44;4.37;;;1.87;;
16892;SDS011;8563;52.242;9.098;2024-02-15T11:23:25;3.40;;;1.90;;
16892;SDS011;8563;52.242;9.098;2024-02-15T11:26:02;4.60;;;1.93;;
16892;SDS011;8563;52.242;9.098;2024-02-15T11:28:39;4.50;;;2.10;;
16892;SDS011;8563;52.242;9.098;2024-02-15T11:31:10;4.53;;;2.00;;
16892;SDS011;8563;52.242;9.098;2024-02-15T11:34:42;4.20;;;1.80;;
16892;SDS011;8563;52.242;9.098;2024-02-15T11:40:23;4.83;;;1.80;;
16892;SDS011;8563;52.242;9.098;2024-02-15T11:42:59;3.60;;;1.63;;
16892;SDS011;8563;52.242;9.098;2024-02-15T11:45:33;4.90;;;1.73;;
16892;SDS011;8563;52.242;9.098;2024-02-15T11:48:09;3.93;;;1.60;;
16892;SDS011;8563;52.242;9.098;2024-02-15T11:50:42;1.77;;;1.53;;
16892;SDS011;8563;52.242;9.098;2024-02-15T11:53:15;6.07;;;1.70;;
16892;SDS011;8563;52.242;9.098;2024-02-15T11:55:48;4.40;;;1.50;;
16892;SDS011;8563;52.242;9.098;2024-02-15T11:58:23;4.03;;;1.60;;
16892;SDS011;8563;52.242;9.098;2024-02-15T12:01:00;2.80;;;1.53;;
16892;SDS011;8563;52.242;9.098;2024-02-15T12:03:58;2.70;;;1.37;;
16892;SDS011;8563;52.242;9.098;2024-02-15T12:06:48;3.03;;;1.40;;
16892;SDS011;8563;52.242;9.098;2024-02-15T12:09:38;1.70;;;1.30;;
16892;SDS011;8563;52.242;9.098;2024-02-15T12:12:28;3.70;;;1.33;;
16892;SDS011;8563;52.242;9.098;2024-02-15T12:15:19;4.57;;;1.50;;
16892;SDS011;8563;52.242;9.098;2024-02-15T12:18:14;3.77;;;1.70;;
16892;SDS011;8563;52.242;9.098;2024-02-15T12:21:04;4.27;;;1.27;;
16892;SDS011;8563;52.242;9.098;2024-02-15T12:23:40;3.00;;;1.83;;
16892;SDS011;8563;52.242;9.098;2024-02-15T12:26:12;4.20;;;1.10;;
16892;SDS011;8563;52.242;9.098;2024-02-15T12:28:49;1.40;;;0.83;;
16892;SDS011;8563;52.242;9.098;2024-02-15T12:31:26;1.60;;;1.00;;
16892;SDS011;8563;52.242;9.098;2024-02-15T12:33:59;2.97;;;1.30;;
16892;SDS011;8563;52.242;9.098;2024-02-15T12:36:32;2.97;;;1.50;;
16892;SDS011;8563;52.242;9.098;2024-02-15T12:39:07;4.00;;;1.50;;
16892;SDS011;8563;52.242;9.098;2024-02-15T12:41:47;1.97;;;1.13;;
16892;SDS011;8563;52.242;9.098;2024-02-15T12:44:21;2.50;;;1.00;;
16892;SDS011;8563;52.242;9.098;2024-02-15T12:46:56;2.70;;;1.10;;
16892;SDS011;8563;52.242;9.098;2024-02-15T12:49:30;3.33;;;1.23;;
16892;SDS011;8563;52.242;9.098;2024-02-15T12:55:07;2.87;;;1.20;;
16892;SDS011;8563;52.242;9.098;2024-02-15T12:57:40;2.60;;;1.00;;
16892;SDS011;8563;52.242;9.098;2024-02-15T13:00:17;2.40;;;1.10;;
16892;SDS011;8563;52.242;9.098;2024-02-15T13:02:52;2.10;;;1.13;;
16892;SDS011;8563;52.242;9.098;2024-02-15T13:05:25;2.23;;;1.00;;
16892;SDS011;8563;52.242;9.098;2024-02-15T13:07:58;2.87;;;1.10;;
16892;SDS011;8563;52.242;9.098;2024-02-15T13:10:31;3.23;;;1.20;;
16892;SDS011;8563;52.242;9.098;2024-02-15T13:13:03;2.03;;;1.10;;
16892;SDS011;8563;52.242;9.098;2024-02-15T13:15:36;2.23;;;1.20;;
16892;SDS011;8563;52.242;9.098;2024-02-15T13:18:10;2.60;;;1.10;;
16892;SDS011;8563;52.242;9.098;2024-02-15T13:20:44;2.20;;;1.17;;
16892;SDS011;8563;52.242;9.098;2024-02-15T13:23:20;2.93;;;1.37;;
16892;SDS011;8563;52.242;9.098;2024-02-15T13:25:55;2.80;;;1.33;;
16892;SDS011;8563;52.242;9.098;2024-02-15T13:28:28;2.27;;;1.03;;
16892;SDS011;8563;52.242;9.098;2024-02-15T13:31:01;2.60;;;1.30;;
16892;SDS011;8563;52.242;9.098;2024-02-15T13:33:34;3.43;;;1.20;;
16892;SDS011;8563;52.242;9.098;2024-02-15T13:36:07;2.03;;;1.00;;
16892;SDS011;8563;52.242;9.098;2024-02-15T13:38:41;2.90;;;1.20;;
16892;SDS011;8563;52.242;9.098;2024-02-15T13:41:13;2.63;;;1.10;;
16892;SDS011;8563;52.242;9.098;2024-02-15T13:43:46;1.87;;;1.10;;
16892;SDS011;8563;52.242;9.098;2024-02-15T13:46:18;3.10;;;1.30;;
16892;SDS011;8563;52.242;9.098;2024-02-15T13:48:53;1.90;;;1.07;;
16892;SDS011;8563;52.242;9.098;2024-02-15T13:51:26;3.40;;;1.43;;
16892;SDS011;8563;52.242;9.098;2024-02-15T13:53:58;4.53;;;1.47;;
16892;SDS011;8563;52.242;9.098;2024-02-15T13:56:31;2.33;;;1.10;;
16892;SDS011;8563;52.242;9.098;2024-02-15T13:59:03;2.00;;;1.20;;
16892;SDS011;8563;52.242;9.098;2024-02-15T14:01:35;3.30;;;1.20;;
16892;SDS011;8563;52.242;9.098;2024-02-15T14:04:15;4.03;;;1.43;;
16892;SDS011;8563;52.242;9.098;2024-02-15T14:06:47;3.10;;;1.10;;
16892;SDS011;8563;52.242;9.098;2024-02-15T14:09:20;2.50;;;1.00;;
16892;SDS011;8563;52.242;9.098;2024-02-15T14:11:56;1.80;;;1.00;;
16892;SDS011;8563;52.242;9.098;2024-02-15T14:14:28;3.23;;;0.90;;
16892;SDS011;8563;52.242;9.098;2024-02-15T14:17:01;3.70;;;1.03;;
16892;SDS011;8563;52.242;9.098;2024-02-15T14:19:34;2.90;;;1.07;;
16892;SDS011;8563;52.242;9.098;2024-02-15T14:22:08;1.80;;;1.10;;
16892;SDS011;8563;52.242;9.098;2024-02-15T14:24:44;3.20;;;1.20;;
16892;SDS011;8563;52.242;9.098;2024-02-15T14:27:16;3.97;;;1.40;;
16892;SDS011;8563;52.242;9.098;2024-02-15T14:29:49;3.57;;;1.17;;
16892;SDS011;8563;52.242;9.098;2024-02-15T14:32:35;6.33;;;1.40;;
16892;SDS011;8563;52.242;9.098;2024-02-15T14:35:26;3.50;;;1.00;;
16892;SDS011;8563;52.242;9.098;2024-02-15T14:38:00;4.17;;;1.40;;
16892;SDS011;8563;52.242;9.098;2024-02-15T14:40:37;2.23;;;1.47;;
16892;SDS011;8563;52.242;9.098;2024-02-15T14:43:10;3.77;;;1.43;;
16892;SDS011;8563;52.242;9.098;2024-02-15T14:45:43;4.90;;;0.93;;
16892;SDS011;8563;52.242;9.098;2024-02-15T14:48:15;2.67;;;1.30;;
16892;SDS011;8563;52.242;9.098;2024-02-15T14:50:51;2.57;;;1.20;;
16892;SDS011;8563;52.242;9.098;2024-02-15T14:53:26;2.03;;;1.20;;
16892;SDS011;8563;52.242;9.098;2024-02-15T14:55:58;2.77;;;1.40;;
16892;SDS011;8563;52.242;9.098;2024-02-15T14:58:32;3.73;;;1.53;;
16892;SDS011;8563;52.242;9.098;2024-02-15T15:01:05;3.10;;;1.40;;
16892;SDS011;8563;52.242;9.098;2024-02-15T15:03:38;2.93;;;1.70;;
16892;SDS011;8563;52.242;9.098;2024-02-15T15:06:11;3.30;;;1.50;;
16892;SDS011;8563;52.242;9.098;2024-02-15T15:09:01;3.33;;;1.50;;
16892;SDS011;8563;52.242;9.098;2024-02-15T15:11:51;2.20;;;1.17;;
16892;SDS011;8563;52.242;9.098;2024-02-15T15:14:41;4.57;;;1.17;;
16892;SDS011;8563;52.242;9.098;2024-02-15T15:17:15;3.87;;;1.57;;
16892;SDS011;8563;52.242;9.098;2024-02-15T15:19:48;2.33;;;1.43;;
16892;SDS011;8563;52.242;9.098;2024-02-15T15:22:21;2.33;;;1.37;;
16892;SDS011;8563;52.242;9.098;2024-02-15T15:24:54;3.13;;;1.40;;
16892;SDS011;8563;52.242;9.098;2024-02-15T15:27:27;2.43;;;1.23;;
16892;SDS011;8563;52.242;9.098;2024-02-15T15:29:59;2.37;;;1.20;;
16892;SDS011;8563;52.242;9.098;2024-02-15T15:32:31;2.20;;;1.03;;
16892;SDS011;8563;52.242;9.098;2024-02-15T15:35:06;1.63;;;1.03;;
16892;SDS011;8563;52.242;9.098;2024-02-15T15:37:41;2.73;;;1.33;;
16892;SDS011;8563;52.242;9.098;2024-02-15T15:40:14;3.83;;;1.20;;
16892;SDS011;8563;52.242;9.098;2024-02-15T15:42:46;5.83;;;1.20;;
16892;SDS011;8563;52.242;9.098;2024-02-15T15:45:19;4.03;;;1.60;;